createdAt,value
2019-01-19T00:01:16.695Z,-0.20
2019-01-19T00:04:31.101Z,-0.30
2019-01-19T00:07:35.147Z,-0.30
2019-01-19T00:10:39.621Z,-0.30
2019-01-19T00:13:41.530Z,-0.20
2019-01-19T00:16:52.834Z,-0.30
2019-01-19T00:19:57.345Z,-0.30
2019-01-19T00:22:51.355Z,-0.10
2019-01-19T00:26:11.207Z,-0.30
2019-01-19T00:29:00.085Z,-0.40
2019-01-19T00:31:40.023Z,-0.20
2019-01-19T00:34:45.253Z,-0.10
2019-01-19T00:37:31.649Z,-0.20
2019-01-19T00:40:41.548Z,-0.10
2019-01-19T00:43:59.303Z,-0.40
2019-01-19T00:47:02.522Z,-0.40
2019-01-19T00:49:45.104Z,-0.10
2019-01-19T00:52:47.303Z,-0.40
2019-01-19T00:55:48.060Z,-0.30
2019-01-19T00:58:51.082Z,-0.20
2019-01-19T01:02:00.108Z,-0.10
2019-01-19T01:04:51.510Z,-0.20
2019-01-19T01:07:33.078Z,-0.10
2019-01-19T01:10:13.963Z,-0.30
2019-01-19T01:13:28.440Z,-0.30
2019-01-19T01:16:26.767Z,-0.20
2019-01-19T01:19:29.144Z,-0.30
2019-01-19T01:22:21.888Z,-0.20
2019-01-19T01:25:22.048Z,-0.40
2019-01-19T01:28:17.109Z,-0.20
2019-01-19T01:31:18.917Z,-0.30
2019-01-19T01:34:29.437Z,-0.60
2019-01-19T01:37:34.574Z,-0.40
2019-01-19T01:40:27.860Z,-0.60
2019-01-19T01:44:01.051Z,-0.30
2019-01-19T01:47:08.690Z,-0.40
2019-01-19T01:50:15.924Z,-0.60
2019-01-19T01:53:22.082Z,-0.60
2019-01-19T01:55:58.854Z,-0.70
2019-01-19T01:59:10.402Z,-0.70
2019-01-19T02:02:27.806Z,-0.50
2019-01-19T02:05:24.209Z,-0.50
2019-01-19T02:08:06.249Z,-0.70
2019-01-19T02:11:25.711Z,-0.50
2019-01-19T02:14:37.723Z,-0.70
2019-01-19T02:17:36.585Z,-0.50
2019-01-19T02:20:45.644Z,-0.70
2019-01-19T02:24:06.087Z,-0.90
2019-01-19T02:27:22.497Z,-1.00
2019-01-19T02:30:25.263Z,-1.00
2019-01-19T02:33:41.514Z,-1.10
2019-01-19T02:36:49.735Z,-0.90
2019-01-19T02:39:31.232Z,-0.90
2019-01-19T02:42:40.381Z,-1.00
2019-01-19T02:45:34.760Z,-1.00
2019-01-19T02:48:49.043Z,-0.60
2019-01-19T02:51:45.338Z,-0.70
2019-01-19T02:54:46.100Z,-0.60
2019-01-19T02:57:44.780Z,-0.80
2019-01-19T03:00:57.508Z,-1.00
2019-01-19T03:04:20.857Z,-1.10
2019-01-19T03:07:39.134Z,-0.90
2019-01-19T03:10:30.069Z,-0.80
2019-01-19T03:13:44.688Z,-0.70
2019-01-19T03:16:57.807Z,-0.50
2019-01-19T03:19:58.304Z,-0.80
2019-01-19T03:23:09.758Z,-0.90
2019-01-19T03:26:15.236Z,-1.00
2019-01-19T03:29:39.200Z,-0.90
2019-01-19T03:32:46.978Z,-1.10
2019-01-19T03:36:08.013Z,-0.70
2019-01-19T03:39:16.573Z,-1.10
2019-01-19T03:41:57.145Z,-1.00
2019-01-19T03:44:55.406Z,-1.00
2019-01-19T03:47:51.352Z,-0.80
2019-01-19T03:51:20.792Z,-1.00
2019-01-19T03:54:20.050Z,-0.90
2019-01-19T03:57:43.600Z,-1.00
2019-01-19T04:00:56.628Z,-1.00
2019-01-19T04:03:57.440Z,-0.90
2019-01-19T04:07:14.171Z,-1.20
2019-01-19T04:10:32.710Z,-0.80
2019-01-19T04:13:38.798Z,-1.10
2019-01-19T04:16:40.490Z,-0.90
2019-01-19T04:19:50.349Z,-1.20
2019-01-19T04:22:38.870Z,-1.30
2019-01-19T04:25:28.894Z,-1.00
2019-01-19T04:28:00.704Z,-1.10
2019-01-19T04:30:31.038Z,-1.20
2019-01-19T04:33:01.225Z,-0.80
2019-01-19T04:35:31.427Z,-1.00
2019-01-19T04:38:01.977Z,-1.20
2019-01-19T04:40:32.198Z,-1.20
2019-01-19T04:43:02.415Z,-1.30
2019-01-19T04:45:32.643Z,-1.40
2019-01-19T04:48:02.861Z,-1.10
2019-01-19T04:50:33.441Z,-1.50
2019-01-19T04:53:03.790Z,-1.40
2019-01-19T04:55:33.996Z,-1.50
2019-01-19T04:58:04.223Z,-1.50
2019-01-19T05:00:34.812Z,-1.30
2019-01-19T05:03:05.422Z,-1.20
2019-01-19T05:05:35.700Z,-1.10
2019-01-19T05:08:05.925Z,-1.10
2019-01-19T05:10:36.169Z,-1.00
2019-01-19T05:13:06.735Z,-1.10
2019-01-19T05:15:36.996Z,-1.10
2019-01-19T05:18:07.457Z,-1.40
2019-01-19T05:20:38.568Z,-1.30
2019-01-19T05:23:08.838Z,-1.20
2019-01-19T05:25:39.000Z,-1.20
2019-01-19T05:28:09.264Z,-1.30
2019-01-19T05:30:39.395Z,-1.20
2019-01-19T05:33:09.709Z,-1.50
2019-01-19T05:35:39.972Z,-1.20
2019-01-19T05:38:10.579Z,-1.30
2019-01-19T05:40:41.169Z,-1.40
2019-01-19T05:43:11.424Z,-1.20
2019-01-19T05:45:42.033Z,-1.30
2019-01-19T05:48:12.605Z,-1.20
2019-01-19T05:50:42.850Z,-1.10
2019-01-19T05:53:13.515Z,-1.10
2019-01-19T05:55:43.762Z,-1.40
2019-01-19T05:58:14.261Z,-1.10
2019-01-19T06:00:44.500Z,-1.40
2019-01-19T06:03:14.758Z,-1.40
2019-01-19T06:05:45.092Z,-1.40
2019-01-19T06:08:15.685Z,-1.30
2019-01-19T06:10:46.524Z,-1.40
2019-01-19T06:13:16.751Z,-1.50
2019-01-19T06:15:46.991Z,-1.60
2019-01-19T06:18:17.553Z,-1.50
2019-01-19T06:20:48.181Z,-1.60
2019-01-19T06:23:18.398Z,-1.40
2019-01-19T06:25:48.647Z,-1.50
2019-01-19T06:28:18.898Z,-1.30
2019-01-19T06:30:49.069Z,-1.80
2019-01-19T06:33:19.610Z,-1.70
2019-01-19T06:35:49.857Z,-1.60
2019-01-19T06:38:20.478Z,-1.80
2019-01-19T06:40:50.680Z,-1.70
2019-01-19T06:43:21.301Z,-1.30
2019-01-19T06:45:51.582Z,-1.30
2019-01-19T06:48:22.234Z,-1.50
2019-01-19T06:50:52.569Z,-1.40
2019-01-19T06:53:22.792Z,-1.30
2019-01-19T06:55:52.987Z,-1.40
2019-01-19T06:58:23.261Z,-1.20
2019-01-19T07:00:53.475Z,-1.30
2019-01-19T07:03:23.737Z,-1.50
2019-01-19T07:05:53.931Z,-1.40
2019-01-19T07:08:24.135Z,-1.60
2019-01-19T07:10:54.419Z,-1.40
2019-01-19T07:13:24.611Z,-1.60
2019-01-19T07:15:54.827Z,-1.60
2019-01-19T07:18:26.078Z,-1.70
2019-01-19T07:20:56.417Z,-1.30
2019-01-19T07:23:27.149Z,-1.50
2019-01-19T07:25:57.490Z,-1.60
2019-01-19T07:28:27.819Z,-1.50
2019-01-19T07:30:58.097Z,-1.60
2019-01-19T07:33:28.756Z,-1.70
2019-01-19T07:35:59.075Z,-1.70
2019-01-19T07:38:29.472Z,-1.50
2019-01-19T07:41:00.341Z,-1.60
2019-01-19T07:43:33.049Z,-1.40
2019-01-19T07:46:05.593Z,-1.40
2019-01-19T07:48:35.961Z,-1.30
2019-01-19T07:51:06.463Z,-1.30
2019-01-19T07:53:37.199Z,-1.20
2019-01-19T07:56:07.617Z,-1.40
2019-01-19T07:58:38.007Z,-1.20
2019-01-19T08:01:08.523Z,-1.30
2019-01-19T08:03:39.164Z,-1.10
2019-01-19T08:06:09.394Z,-1.10
2019-01-19T08:08:40.210Z,-1.00
2019-01-19T08:11:11.375Z,-1.30
2019-01-19T08:13:41.708Z,-1.10
2019-01-19T08:16:12.061Z,-1.10
2019-01-19T08:18:42.508Z,-1.30
2019-01-19T08:21:12.930Z,-1.20
2019-01-19T08:23:43.308Z,-1.40
2019-01-19T08:26:15.226Z,-1.00
2019-01-19T08:28:48.652Z,-0.90
2019-01-19T08:31:19.513Z,-0.70
2019-01-19T08:33:50.199Z,-0.50
2019-01-19T08:36:20.721Z,-0.70
2019-01-19T08:38:51.478Z,-0.80
2019-01-19T08:41:21.934Z,-0.60
2019-01-19T08:43:55.267Z,-0.70
2019-01-19T08:46:25.955Z,-0.60
2019-01-19T08:48:56.305Z,-0.70
2019-01-19T08:51:26.846Z,-0.60
2019-01-19T08:53:57.583Z,-0.40
2019-01-19T08:56:31.529Z,-0.40
2019-01-19T08:59:01.910Z,-0.50
2019-01-19T09:01:32.283Z,-0.40
2019-01-19T09:04:02.561Z,-0.30
2019-01-19T09:06:32.923Z,-0.40
2019-01-19T09:09:04.534Z,-0.30
2019-01-19T09:11:34.891Z,-0.30
2019-01-19T09:14:07.615Z,0.20
2019-01-19T09:16:40.547Z,0.30
2019-01-19T09:19:09.704Z,0.80
2019-01-19T09:21:40.283Z,0.30
2019-01-19T09:24:15.743Z,0.80
2019-01-19T09:26:46.220Z,1.20
2019-01-19T09:29:16.598Z,1.30
2019-01-19T09:31:47.110Z,1.50
2019-01-19T09:34:17.523Z,1.50
2019-01-19T09:36:47.868Z,1.70
2019-01-19T09:39:18.185Z,1.30
2019-01-19T09:41:48.913Z,1.60
2019-01-19T09:44:19.639Z,1.70
2019-01-19T09:46:49.978Z,1.60
2019-01-19T09:49:20.367Z,1.90
2019-01-19T09:51:50.973Z,2.00
2019-01-19T09:54:21.583Z,2.40
2019-01-19T09:56:52.252Z,2.40
2019-01-19T09:59:22.637Z,2.10
2019-01-19T10:01:53.361Z,2.10
2019-01-19T10:04:23.805Z,2.10
2019-01-19T10:06:54.191Z,2.40
2019-01-19T10:09:25.472Z,1.90
2019-01-19T10:11:55.886Z,1.60
2019-01-19T10:14:26.699Z,1.80
2019-01-19T10:16:57.104Z,1.90
2019-01-19T10:19:27.415Z,2.20
2019-01-19T10:21:57.779Z,2.60
2019-01-19T10:24:28.103Z,2.70
2019-01-19T10:26:59.392Z,2.60
2019-01-19T10:29:30.469Z,2.40
2019-01-19T10:32:00.755Z,2.10
2019-01-19T10:34:31.164Z,2.70
2019-01-19T10:37:01.592Z,2.50
2019-01-19T10:39:32.352Z,2.40
2019-01-19T10:42:03.198Z,2.50
2019-01-19T10:44:34.417Z,2.70
2019-01-19T10:47:04.792Z,2.70
2019-01-19T10:49:35.156Z,2.20
2019-01-19T10:52:05.557Z,2.10
2019-01-19T10:54:35.952Z,1.90
2019-01-19T10:57:06.276Z,1.50
2019-01-19T10:59:37.363Z,1.70
2019-01-19T11:02:07.874Z,1.50
2019-01-19T11:04:38.195Z,1.90
2019-01-19T11:07:08.728Z,2.10
2019-01-19T11:09:39.014Z,2.00
2019-01-19T11:12:09.537Z,1.90
2019-01-19T11:14:39.908Z,1.90
2019-01-19T11:17:12.675Z,2.20
2019-01-19T11:19:43.329Z,2.40
2019-01-19T11:22:13.657Z,2.10
2019-01-19T11:24:44.396Z,2.10
2019-01-19T11:27:14.676Z,1.90
2019-01-19T11:29:45.095Z,1.90
2019-01-19T11:32:15.444Z,2.20
2019-01-19T11:34:45.747Z,2.10
2019-01-19T11:37:16.154Z,2.20
2019-01-19T11:39:46.690Z,2.10
2019-01-19T11:42:17.476Z,2.40
2019-01-19T11:44:47.742Z,2.20
2019-01-19T11:47:18.131Z,2.10
2019-01-19T11:49:48.493Z,2.10
2019-01-19T11:52:19.233Z,2.10
2019-01-19T11:54:49.974Z,2.70
2019-01-19T11:57:23.315Z,3.00
2019-01-19T11:59:53.686Z,3.20
2019-01-19T12:02:24.042Z,3.10
2019-01-19T12:04:57.746Z,3.40
2019-01-19T12:07:28.027Z,3.30
2019-01-19T12:09:58.508Z,2.90
2019-01-19T12:12:28.882Z,2.80
2019-01-19T12:14:59.579Z,2.60
2019-01-19T12:17:29.889Z,2.80
2019-01-19T12:20:00.594Z,3.00
2019-01-19T12:22:30.969Z,2.80
2019-01-19T12:25:01.361Z,2.80
2019-01-19T12:27:31.989Z,3.10
2019-01-19T12:30:02.563Z,2.70
2019-01-19T12:32:33.819Z,2.70
2019-01-19T12:35:04.438Z,3.00
2019-01-19T12:37:34.790Z,2.90
2019-01-19T12:40:06.487Z,2.60
2019-01-19T12:42:36.928Z,3.00
2019-01-19T12:45:10.752Z,2.60
2019-01-19T12:47:41.058Z,3.00
2019-01-19T12:50:17.017Z,3.50
2019-01-19T12:52:47.446Z,3.20
2019-01-19T12:55:17.915Z,3.40
2019-01-19T12:57:48.712Z,3.50
2019-01-19T13:00:21.155Z,3.30
2019-01-19T13:02:54.961Z,3.30
2019-01-19T13:05:29.051Z,3.30
2019-01-19T13:07:59.773Z,3.10
2019-01-19T13:10:33.845Z,3.00
2019-01-19T13:13:11.760Z,2.60
2019-01-19T13:16:19.717Z,3.10
2019-01-19T13:19:24.349Z,3.20
2019-01-19T13:22:37.503Z,3.20
2019-01-19T13:25:54.259Z,3.30
2019-01-19T13:29:17.035Z,3.10
2019-01-19T13:32:34.462Z,3.50
2019-01-19T13:35:48.221Z,3.30
2019-01-19T13:39:17.643Z,3.50
2019-01-19T13:42:25.907Z,3.30
2019-01-19T13:45:58.432Z,3.20
2019-01-19T13:49:03.826Z,3.20
2019-01-19T13:51:42.180Z,3.30
2019-01-19T13:54:44.975Z,3.50
2019-01-19T13:57:30.643Z,3.50
2019-01-19T14:00:51.377Z,3.50
2019-01-19T14:04:02.837Z,3.30
2019-01-19T14:06:55.271Z,3.30
2019-01-19T14:10:19.044Z,3.30
2019-01-19T14:13:44.522Z,3.40
2019-01-19T14:16:33.356Z,3.30
2019-01-19T14:19:49.757Z,3.30
2019-01-19T14:23:03.366Z,3.20
2019-01-19T14:26:18.238Z,3.10
2019-01-19T14:29:28.942Z,3.30
2019-01-19T14:32:45.494Z,3.30
2019-01-19T14:36:08.954Z,3.10
2019-01-19T14:39:20.740Z,3.30
2019-01-19T14:42:44.675Z,3.10
2019-01-19T14:45:58.123Z,3.10
2019-01-19T14:49:17.194Z,2.90
2019-01-19T14:52:19.754Z,2.90
2019-01-19T14:55:21.086Z,2.60
2019-01-19T14:58:35.810Z,2.80
2019-01-19T15:01:53.658Z,2.60
2019-01-19T15:04:54.666Z,2.80
2019-01-19T15:08:09.863Z,2.60
2019-01-19T15:11:02.747Z,2.30
2019-01-19T15:14:21.108Z,2.40
2019-01-19T15:17:36.950Z,2.30
2019-01-19T15:20:17.575Z,2.60
2019-01-19T15:23:29.023Z,2.10
2019-01-19T15:26:25.255Z,2.20
2019-01-19T15:29:25.235Z,2.10
2019-01-19T15:32:19.113Z,2.40
2019-01-19T15:35:22.297Z,1.90
2019-01-19T15:38:36.522Z,2.20
2019-01-19T15:41:43.809Z,1.90
2019-01-19T15:44:59.791Z,1.90
2019-01-19T15:48:02.241Z,2.00
2019-01-19T15:51:13.833Z,2.00
2019-01-19T15:54:04.115Z,1.70
2019-01-19T15:57:18.267Z,1.70
2019-01-19T16:00:05.871Z,1.50
2019-01-19T16:03:13.793Z,1.50
2019-01-19T16:06:40.245Z,1.50
2019-01-19T16:09:26.380Z,1.20
2019-01-19T16:12:08.880Z,1.10
2019-01-19T16:15:10.773Z,1.00
2019-01-19T16:18:21.871Z,0.80
2019-01-19T16:21:12.688Z,0.60
2019-01-19T16:24:24.404Z,0.40
2019-01-19T16:27:28.241Z,0.50
2019-01-19T16:30:27.386Z,0.60
2019-01-19T16:33:19.814Z,0.50
2019-01-19T16:36:23.540Z,0.30
2019-01-19T16:39:37.527Z,0.40
2019-01-19T16:42:31.088Z,0.10
2019-01-19T16:45:30.554Z,0.20
2019-01-19T16:48:41.183Z,0.00
2019-01-19T16:51:55.647Z,0.00
2019-01-19T16:55:06.962Z,0.10
2019-01-19T16:58:30.190Z,-0.10
2019-01-19T17:01:27.551Z,-0.20
2019-01-19T17:04:24.302Z,-0.20
2019-01-19T17:07:10.374Z,-0.20
2019-01-19T17:09:57.870Z,0.00
2019-01-19T17:12:53.471Z,-0.10
2019-01-19T17:16:20.246Z,0.00
2019-01-19T17:19:31.828Z,-0.10
2019-01-19T17:22:27.254Z,-0.20
2019-01-19T17:25:35.778Z,-0.10
2019-01-19T17:28:36.149Z,-0.10
2019-01-19T17:31:36.681Z,-0.10
2019-01-19T17:34:45.357Z,-0.20
2019-01-19T17:38:05.772Z,-0.20
2019-01-19T17:41:20.189Z,-0.30
2019-01-19T17:44:14.806Z,-0.20
2019-01-19T17:47:44.030Z,-0.40
2019-01-19T17:51:07.216Z,-0.10
2019-01-19T17:53:47.251Z,-0.30
2019-01-19T17:56:39.013Z,-0.40
2019-01-19T17:59:59.244Z,-0.20
2019-01-19T18:02:55.806Z,-0.40
2019-01-19T18:06:28.255Z,-0.30
2019-01-19T18:09:28.417Z,-0.30
2019-01-19T18:12:48.909Z,-0.30
2019-01-19T18:15:49.197Z,-0.60
2019-01-19T18:18:44.773Z,-0.50
2019-01-19T18:22:00.787Z,-0.40
2019-01-19T18:25:01.937Z,-0.40
2019-01-19T18:28:15.439Z,-0.60
2019-01-19T18:31:17.948Z,-0.50
2019-01-19T18:34:31.916Z,-0.50
2019-01-19T18:37:41.308Z,-0.50
2019-01-19T18:40:30.938Z,-0.40
2019-01-19T18:43:31.632Z,-0.40
2019-01-19T18:46:35.684Z,-0.50
2019-01-19T18:49:37.073Z,-0.40
2019-01-19T18:52:42.374Z,-0.60
2019-01-19T18:55:46.268Z,-0.50
2019-01-19T18:58:46.340Z,-0.40
2019-01-19T19:01:49.440Z,-0.50
2019-01-19T19:05:03.824Z,-0.50
2019-01-19T19:07:43.172Z,-0.60
2019-01-19T19:10:48.980Z,-0.50
2019-01-19T19:13:56.724Z,-0.20
2019-01-19T19:17:03.181Z,-0.30
2019-01-19T19:20:04.586Z,-0.60
2019-01-19T19:23:01.340Z,-0.70
2019-01-19T19:25:47.280Z,-0.70
2019-01-19T19:28:54.608Z,-0.80
2019-01-19T19:31:50.496Z,-0.60
2019-01-19T19:34:39.773Z,-0.70
2019-01-19T19:37:35.888Z,-0.80
2019-01-19T19:41:08.472Z,-0.70
2019-01-19T19:44:06.410Z,-0.80
2019-01-19T19:47:22.034Z,-0.30
2019-01-19T19:50:44.558Z,-0.50
2019-01-19T19:53:14.822Z,-0.20
2019-01-19T19:55:43.392Z,-0.20
2019-01-19T19:58:13.985Z,-0.50
2019-01-19T20:00:44.607Z,-0.70
2019-01-19T20:03:14.830Z,-0.60
2019-01-19T20:05:45.055Z,-0.70
2019-01-19T20:08:15.448Z,-0.80
2019-01-19T20:10:45.954Z,-0.90
2019-01-19T20:13:16.238Z,-0.70
2019-01-19T20:15:46.511Z,-0.70
2019-01-19T20:18:16.709Z,-0.60
2019-01-19T20:20:46.967Z,-0.90
2019-01-19T20:23:17.147Z,-0.90
2019-01-19T20:25:48.038Z,-0.70
2019-01-19T20:28:18.258Z,-0.60
2019-01-19T20:30:48.585Z,-0.90
2019-01-19T20:33:18.892Z,-0.70
2019-01-19T20:35:49.087Z,-0.90
2019-01-19T20:38:19.219Z,-0.80
2019-01-19T20:40:49.775Z,-0.80
2019-01-19T20:43:19.993Z,-0.90
2019-01-19T20:45:50.235Z,-0.90
2019-01-19T20:48:20.431Z,-0.90
2019-01-19T20:50:50.693Z,-1.00
2019-01-19T20:53:21.563Z,-0.90
2019-01-19T20:55:51.829Z,-1.10
2019-01-19T20:58:22.072Z,-1.10
2019-01-19T21:00:52.305Z,-1.10
2019-01-19T21:03:22.546Z,-1.20
2019-01-19T21:05:52.819Z,-1.00
2019-01-19T21:08:23.008Z,-1.00
2019-01-19T21:10:53.562Z,-1.20
2019-01-19T21:13:23.853Z,-1.00
2019-01-19T21:15:54.434Z,-1.30
2019-01-19T21:18:24.630Z,-1.20
2019-01-19T21:20:55.157Z,-1.20
2019-01-19T21:23:25.500Z,-1.20
2019-01-19T21:25:56.382Z,-1.20
2019-01-19T21:28:26.650Z,-1.20
2019-01-19T21:30:57.278Z,-1.20
2019-01-19T21:33:27.895Z,-1.10
2019-01-19T21:35:58.432Z,-1.10
2019-01-19T21:38:28.632Z,-1.00
2019-01-19T21:40:59.706Z,-1.20
2019-01-19T21:43:29.902Z,-1.00
2019-01-19T21:46:00.188Z,-1.40
2019-01-19T21:48:30.729Z,-1.10
2019-01-19T21:51:00.902Z,-1.40
2019-01-19T21:53:31.125Z,-1.20
2019-01-19T21:56:01.365Z,-1.20
2019-01-19T21:58:31.657Z,-1.20
2019-01-19T22:01:01.872Z,-1.50
2019-01-19T22:03:32.070Z,-1.30
2019-01-19T22:06:03.174Z,-1.50
2019-01-19T22:08:33.399Z,-1.50
2019-01-19T22:11:03.657Z,-1.50
2019-01-19T22:13:35.123Z,-1.50
2019-01-19T22:16:05.314Z,-1.60
2019-01-19T22:18:35.792Z,-1.60
2019-01-19T22:21:06.371Z,-1.40
2019-01-19T22:23:36.616Z,-1.40
2019-01-19T22:26:08.455Z,-1.20
2019-01-19T22:28:38.738Z,-1.20
2019-01-19T22:31:09.325Z,-1.40
2019-01-19T22:33:39.625Z,-1.40
2019-01-19T22:36:09.858Z,-1.30
2019-01-19T22:38:40.086Z,-1.40
2019-01-19T22:41:10.393Z,-1.50
2019-01-19T22:43:40.769Z,-1.50
2019-01-19T22:46:10.963Z,-1.50
2019-01-19T22:48:41.149Z,-1.50
2019-01-19T22:51:11.596Z,-1.40
2019-01-19T22:53:41.947Z,-1.70
2019-01-19T22:56:12.201Z,-1.30
2019-01-19T22:58:42.415Z,-1.60
2019-01-19T23:01:33.708Z,-1.70
2019-01-19T23:04:04.816Z,-1.60
2019-01-19T23:06:35.148Z,-1.80
2019-01-19T23:09:10.558Z,-1.70
2019-01-19T23:11:40.806Z,-1.60
2019-01-19T23:14:12.171Z,-1.60
2019-01-19T23:16:42.451Z,-1.70
2019-01-19T23:19:12.688Z,-1.50
2019-01-19T23:21:43.258Z,-1.70
2019-01-19T23:24:13.480Z,-1.60
2019-01-19T23:26:43.677Z,-1.60
2019-01-19T23:29:14.110Z,-1.80
2019-01-19T23:31:44.752Z,-1.50
2019-01-19T23:34:14.962Z,-1.70
2019-01-19T23:36:45.226Z,-1.80
2019-01-19T23:39:15.520Z,-1.60
2019-01-19T23:41:46.140Z,-1.60
2019-01-19T23:44:17.298Z,-1.70
2019-01-19T23:46:47.940Z,-1.60
2019-01-19T23:49:18.263Z,-1.60
2019-01-19T23:51:48.499Z,-1.60
2019-01-19T23:54:19.468Z,-1.80
2019-01-19T23:56:49.757Z,-1.90
2019-01-19T23:59:19.923Z,-1.80
